Salem, New Jersey
Current Conditions -  °F | °C
As of 5:51 PM on Wednesday 26 Nov 2014 (Local Time) from KILG Reporting Station
Light Rain Light Rain  
Wind Chill: 24°   Ceiling: 800
Heat Index: 35°   Visibility: 4mi
Dew Point: 33°   Wind: 18mph
Humidity: 92%   Direction: 320°NW
Pressure: 29.89"   Gusts: NA
Location:  39.57°N, 75.47°W
Report Text: KILG 262251Z 32016KT 4SM -RA BR BKN008 OVC025 02/01 A2989 RMK AO2 RAE07B25FZRAB07E25 SLP121 P0005 I1000 T00170006
Loading
Personal Weather Stations






























Interactive Weather Map New forecast layout! Learn more

10-Day Weather Forecast

Advertisements
Track Severe Weather on mobile